sensor_id;sensor_type;location;lat;lon;timestamp;temperature;humidity
21861;DHT22;11095;48.066;8.540;2022-10-15T00:01:15;12.20;99.90
21861;DHT22;11095;48.066;8.540;2022-10-15T00:03:43;12.20;99.90
21861;DHT22;11095;48.066;8.540;2022-10-15T00:06:12;12.30;99.90
21861;DHT22;11095;48.066;8.540;2022-10-15T00:08:38;12.30;99.90
21861;DHT22;11095;48.066;8.540;2022-10-15T00:11:11;12.30;99.90
21861;DHT22;11095;48.066;8.540;2022-10-15T00:13:37;12.30;99.90
21861;DHT22;11095;48.066;8.540;2022-10-15T00:16:10;12.30;99.90
21861;DHT22;11095;48.066;8.540;2022-10-15T00:18:36;12.30;99.90
21861;DHT22;11095;48.066;8.540;2022-10-15T00:21:05;12.30;99.90
21861;DHT22;11095;48.066;8.540;2022-10-15T00:23:32;12.30;99.90
21861;DHT22;11095;48.066;8.540;2022-10-15T00:26:25;12.30;99.90
21861;DHT22;11095;48.066;8.540;2022-10-15T00:28:53;12.30;99.90
21861;DHT22;11095;48.066;8.540;2022-10-15T00:31:19;12.30;99.90
21861;DHT22;11095;48.066;8.540;2022-10-15T00:33:49;12.30;99.90
21861;DHT22;11095;48.066;8.540;2022-10-15T00:36:18;12.40;99.90
21861;DHT22;11095;48.066;8.540;2022-10-15T00:38:44;12.40;99.90
21861;DHT22;11095;48.066;8.540;2022-10-15T00:41:24;12.40;99.90
21861;DHT22;11095;48.066;8.540;2022-10-15T00:43:55;12.40;99.90
21861;DHT22;11095;48.066;8.540;2022-10-15T00:46:29;12.40;99.90
21861;DHT22;11095;48.066;8.540;2022-10-15T00:49:17;12.40;99.90
21861;DHT22;11095;48.066;8.540;2022-10-15T00:51:48;12.40;99.90
21861;DHT22;11095;48.066;8.540;2022-10-15T00:54:14;12.40;99.90
21861;DHT22;11095;48.066;8.540;2022-10-15T00:56:42;12.40;99.90
21861;DHT22;11095;48.066;8.540;2022-10-15T00:59:10;12.40;99.90
21861;DHT22;11095;48.066;8.540;2022-10-15T01:01:37;12.40;99.90
21861;DHT22;11095;48.066;8.540;2022-10-15T01:04:04;12.40;99.90
21861;DHT22;11095;48.066;8.540;2022-10-15T01:06:31;12.40;99.90
21861;DHT22;11095;48.066;8.540;2022-10-15T01:08:57;12.40;99.90
21861;DHT22;11095;48.066;8.540;2022-10-15T01:16:45;12.50;99.90
21861;DHT22;11095;48.066;8.540;2022-10-15T01:19:45;12.50;99.90
21861;DHT22;11095;48.066;8.540;2022-10-15T01:27:54;12.50;99.90
21861;DHT22;11095;48.066;8.540;2022-10-15T01:30:41;12.50;99.90
21861;DHT22;11095;48.066;8.540;2022-10-15T01:33:41;12.50;99.90
21861;DHT22;11095;48.066;8.540;2022-10-15T01:36:31;12.60;99.90
21861;DHT22;11095;48.066;8.540;2022-10-15T01:41:53;12.60;99.90
21861;DHT22;11095;48.066;8.540;2022-10-15T01:49:29;12.80;99.90
21861;DHT22;11095;48.066;8.540;2022-10-15T01:51:59;12.90;99.90
21861;DHT22;11095;48.066;8.540;2022-10-15T01:54:26;13.00;99.90
21861;DHT22;11095;48.066;8.540;2022-10-15T01:56:52;13.00;99.90
21861;DHT22;11095;48.066;8.540;2022-10-15T01:59:22;13.00;99.90
21861;DHT22;11095;48.066;8.540;2022-10-15T02:01:49;13.00;99.90
21861;DHT22;11095;48.066;8.540;2022-10-15T02:04:21;13.00;99.90
21861;DHT22;11095;48.066;8.540;2022-10-15T02:06:52;13.00;99.90
21861;DHT22;11095;48.066;8.540;2022-10-15T02:09:40;13.00;99.90
21861;DHT22;11095;48.066;8.540;2022-10-15T02:12:37;13.00;99.90
21861;DHT22;11095;48.066;8.540;2022-10-15T02:18:02;13.00;99.90
21861;DHT22;11095;48.066;8.540;2022-10-15T02:20:50;13.00;99.90
21861;DHT22;11095;48.066;8.540;2022-10-15T02:23:21;13.00;99.90
21861;DHT22;11095;48.066;8.540;2022-10-15T02:25:49;13.00;99.90
21861;DHT22;11095;48.066;8.540;2022-10-15T02:28:17;12.90;99.90
21861;DHT22;11095;48.066;8.540;2022-10-15T02:30:46;12.90;99.90
21861;DHT22;11095;48.066;8.540;2022-10-15T02:33:15;12.90;99.90
21861;DHT22;11095;48.066;8.540;2022-10-15T02:35:43;12.90;99.90
21861;DHT22;11095;48.066;8.540;2022-10-15T02:38:12;12.90;99.90
21861;DHT22;11095;48.066;8.540;2022-10-15T02:40:41;12.90;99.90
21861;DHT22;11095;48.066;8.540;2022-10-15T02:43:10;12.90;99.90
21861;DHT22;11095;48.066;8.540;2022-10-15T02:45:37;12.90;99.90
21861;DHT22;11095;48.066;8.540;2022-10-15T02:48:03;12.90;99.90
21861;DHT22;11095;48.066;8.540;2022-10-15T02:50:29;13.00;99.90
21861;DHT22;11095;48.066;8.540;2022-10-15T02:52:54;13.00;99.90
21861;DHT22;11095;48.066;8.540;2022-10-15T02:55:20;13.00;99.90
21861;DHT22;11095;48.066;8.540;2022-10-15T02:57:46;13.00;99.90
21861;DHT22;11095;48.066;8.540;2022-10-15T03:00:12;13.00;99.90
21861;DHT22;11095;48.066;8.540;2022-10-15T03:02:38;13.00;99.90
21861;DHT22;11095;48.066;8.540;2022-10-15T03:05:03;13.00;99.90
21861;DHT22;11095;48.066;8.540;2022-10-15T03:07:29;13.00;99.90
21861;DHT22;11095;48.066;8.540;2022-10-15T03:09:55;13.00;99.90
21861;DHT22;11095;48.066;8.540;2022-10-15T03:12:21;12.90;99.90
21861;DHT22;11095;48.066;8.540;2022-10-15T03:14:48;13.00;99.90
21861;DHT22;11095;48.066;8.540;2022-10-15T03:17:14;12.90;99.90
21861;DHT22;11095;48.066;8.540;2022-10-15T03:19:40;13.00;99.90
21861;DHT22;11095;48.066;8.540;2022-10-15T03:22:05;12.90;99.90
21861;DHT22;11095;48.066;8.540;2022-10-15T03:24:31;12.90;99.90
21861;DHT22;11095;48.066;8.540;2022-10-15T03:26:56;13.00;99.90
21861;DHT22;11095;48.066;8.540;2022-10-15T03:29:22;12.90;99.90
21861;DHT22;11095;48.066;8.540;2022-10-15T03:31:48;12.90;99.90
21861;DHT22;11095;48.066;8.540;2022-10-15T03:34:14;12.90;99.90
21861;DHT22;11095;48.066;8.540;2022-10-15T03:36:40;13.00;99.90
21861;DHT22;11095;48.066;8.540;2022-10-15T03:39:05;12.90;99.90
21861;DHT22;11095;48.066;8.540;2022-10-15T03:41:33;12.90;99.90
21861;DHT22;11095;48.066;8.540;2022-10-15T03:44:03;12.90;99.90
21861;DHT22;11095;48.066;8.540;2022-10-15T03:46:29;12.90;99.90
21861;DHT22;11095;48.066;8.540;2022-10-15T03:48:54;12.90;99.90
21861;DHT22;11095;48.066;8.540;2022-10-15T03:51:20;12.90;99.90
21861;DHT22;11095;48.066;8.540;2022-10-15T03:53:45;12.90;99.90
21861;DHT22;11095;48.066;8.540;2022-10-15T03:56:11;12.90;99.90
21861;DHT22;11095;48.066;8.540;2022-10-15T03:58:37;12.90;99.90
21861;DHT22;11095;48.066;8.540;2022-10-15T04:01:17;12.90;99.90
21861;DHT22;11095;48.066;8.540;2022-10-15T04:03:43;12.90;99.90
21861;DHT22;11095;48.066;8.540;2022-10-15T04:06:09;12.90;99.90
21861;DHT22;11095;48.066;8.540;2022-10-15T04:08:35;12.90;99.90
21861;DHT22;11095;48.066;8.540;2022-10-15T04:11:01;12.90;99.90
21861;DHT22;11095;48.066;8.540;2022-10-15T04:13:27;12.90;99.90
21861;DHT22;11095;48.066;8.540;2022-10-15T04:15:53;12.90;99.90
21861;DHT22;11095;48.066;8.540;2022-10-15T04:18:19;13.00;99.90
21861;DHT22;11095;48.066;8.540;2022-10-15T04:20:47;12.90;99.90
21861;DHT22;11095;48.066;8.540;2022-10-15T04:23:13;12.90;99.90
21861;DHT22;11095;48.066;8.540;2022-10-15T04:25:39;13.00;99.90
21861;DHT22;11095;48.066;8.540;2022-10-15T04:28:05;13.00;99.90
21861;DHT22;11095;48.066;8.540;2022-10-15T04:30:31;13.00;99.90
21861;DHT22;11095;48.066;8.540;2022-10-15T04:32:57;13.00;99.90
21861;DHT22;11095;48.066;8.540;2022-10-15T04:35:23;12.90;99.90
21861;DHT22;11095;48.066;8.540;2022-10-15T04:37:48;13.00;99.90
21861;DHT22;11095;48.066;8.540;2022-10-15T04:40:14;13.00;99.90
21861;DHT22;11095;48.066;8.540;2022-10-15T04:42:40;13.00;99.90
21861;DHT22;11095;48.066;8.540;2022-10-15T04:45:06;13.00;99.90
21861;DHT22;11095;48.066;8.540;2022-10-15T04:47:32;13.00;99.90
21861;DHT22;11095;48.066;8.540;2022-10-15T04:49:58;13.00;99.90
21861;DHT22;11095;48.066;8.540;2022-10-15T04:52:23;13.00;99.90
21861;DHT22;11095;48.066;8.540;2022-10-15T04:54:49;13.00;99.90
21861;DHT22;11095;48.066;8.540;2022-10-15T04:57:15;13.00;99.90
21861;DHT22;11095;48.066;8.540;2022-10-15T04:59:41;13.00;99.90
21861;DHT22;11095;48.066;8.540;2022-10-15T05:02:07;13.00;99.90
21861;DHT22;11095;48.066;8.540;2022-10-15T05:04:33;13.10;99.90
21861;DHT22;11095;48.066;8.540;2022-10-15T05:06:59;13.10;99.90
21861;DHT22;11095;48.066;8.540;2022-10-15T05:09:24;13.10;99.90
21861;DHT22;11095;48.066;8.540;2022-10-15T05:11:50;13.10;99.90
21861;DHT22;11095;48.066;8.540;2022-10-15T05:14:16;13.10;99.90
21861;DHT22;11095;48.066;8.540;2022-10-15T05:16:42;13.00;99.90
21861;DHT22;11095;48.066;8.540;2022-10-15T05:19:10;13.10;99.90
21861;DHT22;11095;48.066;8.540;2022-10-15T05:21:36;13.10;99.90
21861;DHT22;11095;48.066;8.540;2022-10-15T05:24:02;13.10;99.90
21861;DHT22;11095;48.066;8.540;2022-10-15T05:26:28;13.10;99.90
21861;DHT22;11095;48.066;8.540;2022-10-15T05:28:56;13.10;99.90
21861;DHT22;11095;48.066;8.540;2022-10-15T05:31:24;13.10;99.90
21861;DHT22;11095;48.066;8.540;2022-10-15T05:33:51;13.00;99.90
21861;DHT22;11095;48.066;8.540;2022-10-15T05:36:20;13.10;99.90
21861;DHT22;11095;48.066;8.540;2022-10-15T05:38:52;13.10;99.90
21861;DHT22;11095;48.066;8.540;2022-10-15T05:41:18;13.10;99.90
21861;DHT22;11095;48.066;8.540;2022-10-15T05:43:49;13.00;99.90
21861;DHT22;11095;48.066;8.540;2022-10-15T05:46:15;13.10;99.90
21861;DHT22;11095;48.066;8.540;2022-10-15T05:48:41;13.00;99.90
21861;DHT22;11095;48.066;8.540;2022-10-15T05:51:10;13.00;99.90
21861;DHT22;11095;48.066;8.540;2022-10-15T05:53:37;13.00;99.90
21861;DHT22;11095;48.066;8.540;2022-10-15T05:56:03;13.00;99.90
21861;DHT22;11095;48.066;8.540;2022-10-15T05:58:29;13.00;99.90
21861;DHT22;11095;48.066;8.540;2022-10-15T06:00:57;13.00;99.90
21861;DHT22;11095;48.066;8.540;2022-10-15T06:03:23;13.00;99.90
21861;DHT22;11095;48.066;8.540;2022-10-15T06:05:50;13.00;99.90
21861;DHT22;11095;48.066;8.540;2022-10-15T06:08:16;13.00;99.90
21861;DHT22;11095;48.066;8.540;2022-10-15T06:10:42;13.00;99.90
21861;DHT22;11095;48.066;8.540;2022-10-15T06:13:07;13.10;99.90
21861;DHT22;11095;48.066;8.540;2022-10-15T06:15:33;13.00;99.90
21861;DHT22;11095;48.066;8.540;2022-10-15T06:17:59;13.00;99.90
21861;DHT22;11095;48.066;8.540;2022-10-15T06:20:25;13.10;99.90
21861;DHT22;11095;48.066;8.540;2022-10-15T06:22:56;13.10;99.90
21861;DHT22;11095;48.066;8.540;2022-10-15T06:25:22;13.10;99.90
21861;DHT22;11095;48.066;8.540;2022-10-15T06:27:47;13.10;99.90
21861;DHT22;11095;48.066;8.540;2022-10-15T06:30:13;13.00;99.90
21861;DHT22;11095;48.066;8.540;2022-10-15T06:32:39;13.00;99.90
21861;DHT22;11095;48.066;8.540;2022-10-15T06:35:05;13.00;99.90
21861;DHT22;11095;48.066;8.540;2022-10-15T06:37:30;13.10;99.90
21861;DHT22;11095;48.066;8.540;2022-10-15T06:39:56;13.10;99.90
21861;DHT22;11095;48.066;8.540;2022-10-15T06:42:21;13.10;99.90
21861;DHT22;11095;48.066;8.540;2022-10-15T06:44:47;13.10;99.90
21861;DHT22;11095;48.066;8.540;2022-10-15T06:47:13;13.20;99.90
21861;DHT22;11095;48.066;8.540;2022-10-15T06:49:38;13.20;99.90
21861;DHT22;11095;48.066;8.540;2022-10-15T06:52:04;13.20;99.90
21861;DHT22;11095;48.066;8.540;2022-10-15T06:54:29;13.30;99.90
21861;DHT22;11095;48.066;8.540;2022-10-15T06:56:55;13.30;99.90
21861;DHT22;11095;48.066;8.540;2022-10-15T06:59:21;13.40;99.90
21861;DHT22;11095;48.066;8.540;2022-10-15T07:01:46;13.50;99.90
21861;DHT22;11095;48.066;8.540;2022-10-15T07:04:12;13.60;99.90
21861;DHT22;11095;48.066;8.540;2022-10-15T07:06:38;13.70;99.90
21861;DHT22;11095;48.066;8.540;2022-10-15T07:09:04;13.80;99.90
21861;DHT22;11095;48.066;8.540;2022-10-15T07:11:30;14.00;99.90
21861;DHT22;11095;48.066;8.540;2022-10-15T07:13:56;14.10;99.90
21861;DHT22;11095;48.066;8.540;2022-10-15T07:16:23;14.30;99.90
21861;DHT22;11095;48.066;8.540;2022-10-15T07:18:48;14.50;99.90
21861;DHT22;11095;48.066;8.540;2022-10-15T07:21:14;14.70;99.90
21861;DHT22;11095;48.066;8.540;2022-10-15T07:23:40;14.80;99.90
21861;DHT22;11095;48.066;8.540;2022-10-15T07:26:05;14.90;99.90
21861;DHT22;11095;48.066;8.540;2022-10-15T07:28:31;14.80;99.90
21861;DHT22;11095;48.066;8.540;2022-10-15T07:31:02;14.90;99.90
21861;DHT22;11095;48.066;8.540;2022-10-15T07:33:28;14.90;99.90
21861;DHT22;11095;48.066;8.540;2022-10-15T07:35:54;15.00;99.90
21861;DHT22;11095;48.066;8.540;2022-10-15T07:38:20;15.10;99.90
21861;DHT22;11095;48.066;8.540;2022-10-15T07:40:45;15.20;99.90
21861;DHT22;11095;48.066;8.540;2022-10-15T07:43:11;15.30;99.90
21861;DHT22;11095;48.066;8.540;2022-10-15T07:45:37;15.40;99.90
21861;DHT22;11095;48.066;8.540;2022-10-15T07:48:04;15.30;99.90
21861;DHT22;11095;48.066;8.540;2022-10-15T07:50:29;15.30;99.90
21861;DHT22;11095;48.066;8.540;2022-10-15T07:52:55;15.30;99.90
21861;DHT22;11095;48.066;8.540;2022-10-15T07:55:21;15.40;99.90
21861;DHT22;11095;48.066;8.540;2022-10-15T07:57:46;15.50;99.90
21861;DHT22;11095;48.066;8.540;2022-10-15T08:00:12;15.70;99.90
21861;DHT22;11095;48.066;8.540;2022-10-15T08:02:39;15.70;99.90
21861;DHT22;11095;48.066;8.540;2022-10-15T08:05:05;15.70;99.90
21861;DHT22;11095;48.066;8.540;2022-10-15T08:07:31;15.70;99.90
21861;DHT22;11095;48.066;8.540;2022-10-15T08:09:56;15.80;99.90
21861;DHT22;11095;48.066;8.540;2022-10-15T08:12:22;16.00;99.90
21861;DHT22;11095;48.066;8.540;2022-10-15T08:14:48;16.00;99.90
21861;DHT22;11095;48.066;8.540;2022-10-15T08:17:13;16.10;99.90
21861;DHT22;11095;48.066;8.540;2022-10-15T08:19:39;16.20;99.90
21861;DHT22;11095;48.066;8.540;2022-10-15T08:22:05;16.30;99.90
21861;DHT22;11095;48.066;8.540;2022-10-15T08:24:30;16.50;99.90
21861;DHT22;11095;48.066;8.540;2022-10-15T08:26:57;16.80;99.90
21861;DHT22;11095;48.066;8.540;2022-10-15T08:29:23;17.30;99.90
21861;DHT22;11095;48.066;8.540;2022-10-15T08:31:49;17.50;99.90
21861;DHT22;11095;48.066;8.540;2022-10-15T08:34:15;17.60;99.90
21861;DHT22;11095;48.066;8.540;2022-10-15T08:36:41;17.50;99.90
21861;DHT22;11095;48.066;8.540;2022-10-15T08:39:06;17.40;99.90
21861;DHT22;11095;48.066;8.540;2022-10-15T08:44:09;17.30;99.90
21861;DHT22;11095;48.066;8.540;2022-10-15T08:46:41;17.40;99.90
21861;DHT22;11095;48.066;8.540;2022-10-15T08:54:40;18.30;99.90
21861;DHT22;11095;48.066;8.540;2022-10-15T08:57:14;19.10;99.90
21861;DHT22;11095;48.066;8.540;2022-10-15T09:00:03;19.80;99.90
21861;DHT22;11095;48.066;8.540;2022-10-15T09:02:37;19.90;99.90
21861;DHT22;11095;48.066;8.540;2022-10-15T09:07:55;19.80;99.90
21861;DHT22;11095;48.066;8.540;2022-10-15T09:10:46;19.50;99.90
21861;DHT22;11095;48.066;8.540;2022-10-15T09:16:16;19.00;99.90
21861;DHT22;11095;48.066;8.540;2022-10-15T09:18:46;18.80;99.90
21861;DHT22;11095;48.066;8.540;2022-10-15T09:21:12;18.60;99.90
21861;DHT22;11095;48.066;8.540;2022-10-15T09:23:39;18.40;99.90
21861;DHT22;11095;48.066;8.540;2022-10-15T09:26:22;18.30;99.90
21861;DHT22;11095;48.066;8.540;2022-10-15T09:28:58;18.20;99.90
21861;DHT22;11095;48.066;8.540;2022-10-15T09:31:38;18.20;99.90
21861;DHT22;11095;48.066;8.540;2022-10-15T09:34:17;18.00;99.90
21861;DHT22;11095;48.066;8.540;2022-10-15T09:37:01;17.90;99.90
21861;DHT22;11095;48.066;8.540;2022-10-15T09:42:26;17.60;99.90
21861;DHT22;11095;48.066;8.540;2022-10-15T09:44:58;17.50;99.90
21861;DHT22;11095;48.066;8.540;2022-10-15T09:47:25;17.40;99.90
21861;DHT22;11095;48.066;8.540;2022-10-15T09:49:51;17.50;99.90
21861;DHT22;11095;48.066;8.540;2022-10-15T09:55:36;17.90;99.90
21861;DHT22;11095;48.066;8.540;2022-10-15T09:58:15;18.10;99.90
21861;DHT22;11095;48.066;8.540;2022-10-15T10:01:01;18.30;99.90
21861;DHT22;11095;48.066;8.540;2022-10-15T10:03:29;18.40;99.90
21861;DHT22;11095;48.066;8.540;2022-10-15T10:06:08;18.40;99.90
21861;DHT22;11095;48.066;8.540;2022-10-15T10:08:46;18.30;99.90
21861;DHT22;11095;48.066;8.540;2022-10-15T10:11:12;18.10;99.90
21861;DHT22;11095;48.066;8.540;2022-10-15T10:13:56;18.10;99.90
21861;DHT22;11095;48.066;8.540;2022-10-15T10:16:23;17.90;99.90
21861;DHT22;11095;48.066;8.540;2022-10-15T10:19:13;17.80;99.90
21861;DHT22;11095;48.066;8.540;2022-10-15T10:21:41;17.60;99.90
21861;DHT22;11095;48.066;8.540;2022-10-15T10:24:26;17.50;99.90
21861;DHT22;11095;48.066;8.540;2022-10-15T10:26:59;17.30;99.90
21861;DHT22;11095;48.066;8.540;2022-10-15T10:29:27;17.10;99.90
21861;DHT22;11095;48.066;8.540;2022-10-15T10:31:54;16.90;99.90
21861;DHT22;11095;48.066;8.540;2022-10-15T10:34:30;16.80;99.90
21861;DHT22;11095;48.066;8.540;2022-10-15T10:36:56;16.80;99.90
21861;DHT22;11095;48.066;8.540;2022-10-15T10:39:30;16.80;99.90
21861;DHT22;11095;48.066;8.540;2022-10-15T10:41:57;16.70;99.90
21861;DHT22;11095;48.066;8.540;2022-10-15T10:44:30;16.80;99.90
21861;DHT22;11095;48.066;8.540;2022-10-15T10:47:12;16.80;99.90
21861;DHT22;11095;48.066;8.540;2022-10-15T10:49:41;16.70;99.90
21861;DHT22;11095;48.066;8.540;2022-10-15T10:52:26;16.70;99.90
21861;DHT22;11095;48.066;8.540;2022-10-15T10:55:20;16.80;99.90
21861;DHT22;11095;48.066;8.540;2022-10-15T10:57:50;16.80;99.90
21861;DHT22;11095;48.066;8.540;2022-10-15T11:02:50;17.50;99.90
21861;DHT22;11095;48.066;8.540;2022-10-15T11:05:24;18.00;99.90
21861;DHT22;11095;48.066;8.540;2022-10-15T11:08:20;18.40;99.90
21861;DHT22;11095;48.066;8.540;2022-10-15T11:11:44;18.90;99.90
21861;DHT22;11095;48.066;8.540;2022-10-15T11:14:07;19.40;99.90
21861;DHT22;11095;48.066;8.540;2022-10-15T11:16:56;19.90;99.90
21861;DHT22;11095;48.066;8.540;2022-10-15T11:20:02;20.30;99.90
21861;DHT22;11095;48.066;8.540;2022-10-15T11:25:13;20.70;99.90
21861;DHT22;11095;48.066;8.540;2022-10-15T11:30:26;20.40;99.90
21861;DHT22;11095;48.066;8.540;2022-10-15T11:38:41;19.50;99.90
21861;DHT22;11095;48.066;8.540;2022-10-15T11:43:59;19.30;99.90
21861;DHT22;11095;48.066;8.540;2022-10-15T11:46:59;19.30;99.90
21861;DHT22;11095;48.066;8.540;2022-10-15T11:49:50;19.40;99.90
21861;DHT22;11095;48.066;8.540;2022-10-15T11:58:02;19.50;99.90
21861;DHT22;11095;48.066;8.540;2022-10-15T12:00:54;19.60;99.90
21861;DHT22;11095;48.066;8.540;2022-10-15T12:03:27;19.80;99.90
21861;DHT22;11095;48.066;8.540;2022-10-15T12:06:02;19.90;99.90
21861;DHT22;11095;48.066;8.540;2022-10-15T12:08:34;20.00;99.90
21861;DHT22;11095;48.066;8.540;2022-10-15T12:13:30;20.20;99.90
21861;DHT22;11095;48.066;8.540;2022-10-15T12:16:03;20.20;99.90
21861;DHT22;11095;48.066;8.540;2022-10-15T12:21:34;20.40;99.90
21861;DHT22;11095;48.066;8.540;2022-10-15T12:24:00;20.70;99.90
21861;DHT22;11095;48.066;8.540;2022-10-15T12:26:30;20.70;99.90
21861;DHT22;11095;48.066;8.540;2022-10-15T12:28:58;20.60;99.90
21861;DHT22;11095;48.066;8.540;2022-10-15T12:31:28;20.30;99.90
21861;DHT22;11095;48.066;8.540;2022-10-15T12:34:32;20.30;99.90
21861;DHT22;11095;48.066;8.540;2022-10-15T12:37:04;20.20;99.90
21861;DHT22;11095;48.066;8.540;2022-10-15T12:39:31;20.10;99.90
21861;DHT22;11095;48.066;8.540;2022-10-15T12:41:57;19.80;99.90
21861;DHT22;11095;48.066;8.540;2022-10-15T12:46:51;19.20;99.90
21861;DHT22;11095;48.066;8.540;2022-10-15T12:51:57;18.80;99.90
21861;DHT22;11095;48.066;8.540;2022-10-15T12:54:49;18.70;99.90
21861;DHT22;11095;48.066;8.540;2022-10-15T13:00:00;18.80;99.90
21861;DHT22;11095;48.066;8.540;2022-10-15T13:04:58;19.00;99.90
21861;DHT22;11095;48.066;8.540;2022-10-15T13:07:24;19.10;99.90
21861;DHT22;11095;48.066;8.540;2022-10-15T13:09:50;19.30;99.90
21861;DHT22;11095;48.066;8.540;2022-10-15T13:12:22;19.40;99.90
21861;DHT22;11095;48.066;8.540;2022-10-15T13:14:55;19.30;99.90
21861;DHT22;11095;48.066;8.540;2022-10-15T13:17:22;19.30;99.90
21861;DHT22;11095;48.066;8.540;2022-10-15T13:20:04;19.20;99.90
21861;DHT22;11095;48.066;8.540;2022-10-15T13:22:31;19.10;99.90
21861;DHT22;11095;48.066;8.540;2022-10-15T13:24:58;19.10;99.90
21861;DHT22;11095;48.066;8.540;2022-10-15T13:30:10;19.00;99.90
21861;DHT22;11095;48.066;8.540;2022-10-15T13:32:46;18.90;99.90
21861;DHT22;11095;48.066;8.540;2022-10-15T13:35:16;18.90;99.90
21861;DHT22;11095;48.066;8.540;2022-10-15T13:37:43;19.00;99.90
21861;DHT22;11095;48.066;8.540;2022-10-15T13:40:35;18.90;99.90
21861;DHT22;11095;48.066;8.540;2022-10-15T13:43:16;18.90;99.90
21861;DHT22;11095;48.066;8.540;2022-10-15T13:45:53;18.90;99.90
21861;DHT22;11095;48.066;8.540;2022-10-15T13:48:24;18.90;99.90
21861;DHT22;11095;48.066;8.540;2022-10-15T13:51:01;18.80;99.90
21861;DHT22;11095;48.066;8.540;2022-10-15T13:53:39;18.70;99.90
21861;DHT22;11095;48.066;8.540;2022-10-15T13:56:29;18.50;99.90
21861;DHT22;11095;48.066;8.540;2022-10-15T13:58:58;18.40;99.90
21861;DHT22;11095;48.066;8.540;2022-10-15T14:01:25;18.30;99.90
21861;DHT22;11095;48.066;8.540;2022-10-15T14:04:01;18.20;99.90
21861;DHT22;11095;48.066;8.540;2022-10-15T14:08:57;18.20;99.90
21861;DHT22;11095;48.066;8.540;2022-10-15T14:11:24;18.20;99.90
21861;DHT22;11095;48.066;8.540;2022-10-15T14:13:52;18.20;99.90
21861;DHT22;11095;48.066;8.540;2022-10-15T14:16:23;18.20;99.90
21861;DHT22;11095;48.066;8.540;2022-10-15T14:18:51;18.20;99.90
21861;DHT22;11095;48.066;8.540;2022-10-15T14:21:20;18.30;99.90
21861;DHT22;11095;48.066;8.540;2022-10-15T14:23:47;18.30;99.90
21861;DHT22;11095;48.066;8.540;2022-10-15T14:26:14;18.30;99.90
21861;DHT22;11095;48.066;8.540;2022-10-15T14:28:49;18.30;99.90
21861;DHT22;11095;48.066;8.540;2022-10-15T14:31:44;18.30;99.90
21861;DHT22;11095;48.066;8.540;2022-10-15T14:36:55;18.30;99.90
21861;DHT22;11095;48.066;8.540;2022-10-15T14:39:33;18.20;99.90
21861;DHT22;11095;48.066;8.540;2022-10-15T14:44:25;18.10;99.90
21861;DHT22;11095;48.066;8.540;2022-10-15T14:46:59;18.20;99.90
21861;DHT22;11095;48.066;8.540;2022-10-15T14:49:35;18.30;99.90
21861;DHT22;11095;48.066;8.540;2022-10-15T14:52:10;18.40;99.90
21861;DHT22;11095;48.066;8.540;2022-10-15T14:54:43;18.30;99.90
21861;DHT22;11095;48.066;8.540;2022-10-15T14:57:21;18.30;99.90
21861;DHT22;11095;48.066;8.540;2022-10-15T14:59:52;18.10;99.90
21861;DHT22;11095;48.066;8.540;2022-10-15T15:02:22;18.00;99.90
21861;DHT22;11095;48.066;8.540;2022-10-15T15:07:37;17.70;99.90
21861;DHT22;11095;48.066;8.540;2022-10-15T15:10:05;17.60;99.90
21861;DHT22;11095;48.066;8.540;2022-10-15T15:12:32;17.50;99.90
21861;DHT22;11095;48.066;8.540;2022-10-15T15:14:58;17.50;99.90
21861;DHT22;11095;48.066;8.540;2022-10-15T15:17:26;17.50;99.90
21861;DHT22;11095;48.066;8.540;2022-10-15T15:19:54;17.50;99.90
21861;DHT22;11095;48.066;8.540;2022-10-15T15:24:50;17.50;99.90
21861;DHT22;11095;48.066;8.540;2022-10-15T15:27:30;17.40;99.90
21861;DHT22;11095;48.066;8.540;2022-10-15T15:29:56;17.40;99.90
21861;DHT22;11095;48.066;8.540;2022-10-15T15:32:23;17.30;99.90
21861;DHT22;11095;48.066;8.540;2022-10-15T15:34:50;17.30;99.90
21861;DHT22;11095;48.066;8.540;2022-10-15T15:37:21;17.20;99.90
21861;DHT22;11095;48.066;8.540;2022-10-15T15:39:47;17.30;99.90
21861;DHT22;11095;48.066;8.540;2022-10-15T15:42:15;17.30;99.90
21861;DHT22;11095;48.066;8.540;2022-10-15T15:44:41;17.40;99.90
21861;DHT22;11095;48.066;8.540;2022-10-15T15:47:07;17.40;99.90
21861;DHT22;11095;48.066;8.540;2022-10-15T15:49:33;17.40;99.90
21861;DHT22;11095;48.066;8.540;2022-10-15T15:51:59;17.30;99.90
21861;DHT22;11095;48.066;8.540;2022-10-15T15:54:25;17.30;99.90
21861;DHT22;11095;48.066;8.540;2022-10-15T15:56:50;17.20;99.90
21861;DHT22;11095;48.066;8.540;2022-10-15T15:59:16;17.10;99.90
21861;DHT22;11095;48.066;8.540;2022-10-15T16:01:44;17.00;99.90
21861;DHT22;11095;48.066;8.540;2022-10-15T16:04:10;16.90;99.90
21861;DHT22;11095;48.066;8.540;2022-10-15T16:06:39;16.80;99.90
21861;DHT22;11095;48.066;8.540;2022-10-15T16:09:06;16.70;99.90
21861;DHT22;11095;48.066;8.540;2022-10-15T16:11:33;16.60;99.90
21861;DHT22;11095;48.066;8.540;2022-10-15T16:13:58;16.60;99.90
21861;DHT22;11095;48.066;8.540;2022-10-15T16:16:25;16.60;99.90
21861;DHT22;11095;48.066;8.540;2022-10-15T16:18:51;16.50;99.90
21861;DHT22;11095;48.066;8.540;2022-10-15T16:21:21;16.50;99.90
21861;DHT22;11095;48.066;8.540;2022-10-15T16:23:47;16.40;99.90
21861;DHT22;11095;48.066;8.540;2022-10-15T16:26:12;16.40;99.90
21861;DHT22;11095;48.066;8.540;2022-10-15T16:28:38;16.30;99.90
21861;DHT22;11095;48.066;8.540;2022-10-15T16:31:17;16.20;99.90
21861;DHT22;11095;48.066;8.540;2022-10-15T16:33:43;16.20;99.90
21861;DHT22;11095;48.066;8.540;2022-10-15T16:36:09;16.20;99.90
21861;DHT22;11095;48.066;8.540;2022-10-15T16:38:34;16.10;99.90
21861;DHT22;11095;48.066;8.540;2022-10-15T16:41:00;16.10;99.90
21861;DHT22;11095;48.066;8.540;2022-10-15T16:43:26;16.00;99.90
21861;DHT22;11095;48.066;8.540;2022-10-15T16:45:55;16.00;99.90
21861;DHT22;11095;48.066;8.540;2022-10-15T16:48:21;16.00;99.90
21861;DHT22;11095;48.066;8.540;2022-10-15T16:50:47;15.90;99.90
21861;DHT22;11095;48.066;8.540;2022-10-15T16:53:22;15.80;99.90
21861;DHT22;11095;48.066;8.540;2022-10-15T16:55:47;15.70;99.90
21861;DHT22;11095;48.066;8.540;2022-10-15T16:58:13;15.60;99.90
21861;DHT22;11095;48.066;8.540;2022-10-15T17:00:39;15.50;99.90
21861;DHT22;11095;48.066;8.540;2022-10-15T17:03:05;15.40;99.90
21861;DHT22;11095;48.066;8.540;2022-10-15T17:05:31;15.30;99.90
21861;DHT22;11095;48.066;8.540;2022-10-15T17:07:56;15.20;99.90
21861;DHT22;11095;48.066;8.540;2022-10-15T17:10:22;15.20;99.90
21861;DHT22;11095;48.066;8.540;2022-10-15T17:12:50;15.10;99.90
21861;DHT22;11095;48.066;8.540;2022-10-15T17:15:16;15.10;99.90
21861;DHT22;11095;48.066;8.540;2022-10-15T17:17:42;15.00;99.90
21861;DHT22;11095;48.066;8.540;2022-10-15T17:20:08;15.00;99.90
21861;DHT22;11095;48.066;8.540;2022-10-15T17:22:34;14.90;99.90